createdAt,value
2022-08-28T00:00:32.126Z,1008.00
2022-08-28T00:01:32.119Z,1008.00
2022-08-28T00:02:32.139Z,1007.96
2022-08-28T00:03:32.101Z,1007.98
2022-08-28T00:04:32.155Z,1007.99
2022-08-28T00:05:32.057Z,1008.01
2022-08-28T00:06:32.066Z,1008.00
2022-08-28T00:07:32.038Z,1007.99
2022-08-28T00:08:32.069Z,1007.97
2022-08-28T00:09:32.016Z,1008.00
2022-08-28T00:10:32.027Z,1008.02
2022-08-28T00:11:32.035Z,1007.97
2022-08-28T00:12:31.997Z,1007.99
2022-08-28T00:13:31.993Z,1008.02
2022-08-28T00:14:31.968Z,1007.99
2022-08-28T00:15:31.951Z,1007.96
2022-08-28T00:16:32.012Z,1007.95
2022-08-28T00:17:31.944Z,1007.98
2022-08-28T00:18:31.936Z,1007.98
2022-08-28T00:19:34.455Z,1008.01
2022-08-28T00:20:31.910Z,1007.97
2022-08-28T00:21:31.890Z,1008.02
2022-08-28T00:22:31.894Z,1007.96
2022-08-28T00:23:38.807Z,1008.01
2022-08-28T00:24:31.882Z,1008.04
2022-08-28T00:25:31.847Z,1008.00
2022-08-28T00:26:31.843Z,1008.03
2022-08-28T00:27:31.856Z,1008.04
2022-08-28T00:28:31.834Z,1008.01
2022-08-28T00:29:31.799Z,1008.03
2022-08-28T00:30:31.814Z,1008.03
2022-08-28T00:31:31.841Z,1008.03
2022-08-28T00:32:31.778Z,1008.05
2022-08-28T00:33:31.788Z,1008.03
2022-08-28T00:34:33.305Z,1008.05
2022-08-28T00:35:31.739Z,1008.03
2022-08-28T00:36:31.734Z,1008.04
2022-08-28T00:37:31.713Z,1008.06
2022-08-28T00:38:31.718Z,1008.07
2022-08-28T00:39:31.701Z,1008.10
2022-08-28T00:40:32.892Z,1008.07
2022-08-28T00:41:31.693Z,1008.11
2022-08-28T00:42:31.690Z,1008.09
2022-08-28T00:43:31.652Z,1008.11
2022-08-28T00:44:31.678Z,1008.09
2022-08-28T00:45:34.843Z,1008.08
2022-08-28T00:46:31.666Z,1008.06
2022-08-28T00:47:31.627Z,1008.11
2022-08-28T00:48:31.604Z,1008.08
2022-08-28T00:49:31.596Z,1008.06
2022-08-28T00:50:31.598Z,1008.08
2022-08-28T00:51:31.568Z,1008.07
2022-08-28T00:52:31.558Z,1008.06
2022-08-28T00:53:33.122Z,1008.08
2022-08-28T00:54:31.540Z,1008.07
2022-08-28T00:55:31.515Z,1008.03
2022-08-28T00:56:31.530Z,1008.00
2022-08-28T00:57:31.503Z,1008.03
2022-08-28T00:58:31.492Z,1008.03
2022-08-28T00:59:31.479Z,1008.04
2022-08-28T01:00:31.476Z,1008.03
2022-08-28T01:01:31.501Z,1008.07
2022-08-28T01:02:31.521Z,1008.07
2022-08-28T01:03:31.436Z,1008.07
2022-08-28T01:04:31.441Z,1008.06
2022-08-28T01:05:31.422Z,1008.06
2022-08-28T01:06:31.413Z,1008.06
2022-08-28T01:07:31.402Z,1008.07
2022-08-28T01:08:31.400Z,1008.08
2022-08-28T01:09:31.386Z,1008.07
2022-08-28T01:10:31.378Z,1008.06
2022-08-28T01:11:31.385Z,1008.06
2022-08-28T01:12:31.347Z,1008.03
2022-08-28T01:13:31.347Z,1008.07
2022-08-28T01:14:31.320Z,1008.05
2022-08-28T01:15:31.369Z,1008.06
2022-08-28T01:16:33.061Z,1008.07
2022-08-28T01:17:31.354Z,1008.04
2022-08-28T01:18:31.282Z,1008.05
2022-08-28T01:19:31.291Z,1008.03
2022-08-28T01:20:31.246Z,1008.03
2022-08-28T01:21:31.233Z,1008.06
2022-08-28T01:22:31.231Z,1008.05
2022-08-28T01:23:31.211Z,1008.03
2022-08-28T01:24:31.236Z,1008.05
2022-08-28T01:25:31.199Z,1008.05
2022-08-28T01:26:31.185Z,1008.05
2022-08-28T01:27:31.173Z,1008.03
2022-08-28T01:28:31.163Z,1008.08
2022-08-28T01:29:31.158Z,1008.06
2022-08-28T01:30:31.149Z,1008.05
2022-08-28T01:31:31.223Z,1008.02
2022-08-28T01:32:31.119Z,1008.06
2022-08-28T01:33:31.128Z,1008.07
2022-08-28T01:34:31.100Z,1008.09
2022-08-28T01:35:31.095Z,1008.09
2022-08-28T01:36:31.086Z,1008.08
2022-08-28T01:37:31.061Z,1008.09
2022-08-28T01:38:31.056Z,1008.10
2022-08-28T01:39:31.065Z,1008.10
2022-08-28T01:40:31.103Z,1008.08
2022-08-28T01:41:31.013Z,1008.06
2022-08-28T01:42:31.011Z,1008.06
2022-08-28T01:43:30.996Z,1008.06
2022-08-28T01:44:30.999Z,1008.05
2022-08-28T01:45:31.006Z,1008.05
2022-08-28T01:46:31.014Z,1008.10
2022-08-28T01:47:30.955Z,1008.09
2022-08-28T01:48:30.949Z,1008.10
2022-08-28T01:49:30.940Z,1008.03
2022-08-28T01:50:30.935Z,1008.07
2022-08-28T01:51:35.179Z,1008.06
2022-08-28T01:52:30.909Z,1008.05
2022-08-28T01:53:32.696Z,1008.05
2022-08-28T01:54:30.888Z,1008.00
2022-08-28T01:55:30.874Z,1008.00
2022-08-28T01:56:30.887Z,1008.01
2022-08-28T01:57:30.868Z,1007.97
2022-08-28T01:58:32.990Z,1007.98
2022-08-28T01:59:30.833Z,1007.99
2022-08-28T02:00:30.820Z,1007.97
2022-08-28T02:01:30.936Z,1007.99
2022-08-28T02:02:30.808Z,1008.02
2022-08-28T02:03:30.786Z,1008.02
2022-08-28T02:04:31.705Z,1008.01
2022-08-28T02:05:30.751Z,1008.00
2022-08-28T02:06:30.747Z,1008.02
2022-08-28T02:07:30.739Z,1008.05
2022-08-28T02:08:30.747Z,1008.04
2022-08-28T02:09:30.716Z,1008.00
2022-08-28T02:10:30.710Z,1008.07
2022-08-28T02:11:30.699Z,1008.09
2022-08-28T02:12:30.678Z,1008.10
2022-08-28T02:13:30.703Z,1008.09
2022-08-28T02:14:30.682Z,1008.09
2022-08-28T02:15:30.691Z,1008.11
2022-08-28T02:16:30.645Z,1008.13
2022-08-28T02:17:30.622Z,1008.07
2022-08-28T02:18:30.648Z,1008.10
2022-08-28T02:19:30.621Z,1008.07
2022-08-28T02:20:30.607Z,1008.14
2022-08-28T02:21:30.597Z,1008.11
2022-08-28T02:22:30.580Z,1008.12
2022-08-28T02:23:30.564Z,1008.15
2022-08-28T02:24:30.561Z,1008.13
2022-08-28T02:25:30.584Z,1008.17
2022-08-28T02:26:30.547Z,1008.13
2022-08-28T02:27:30.520Z,1008.18
2022-08-28T02:28:30.514Z,1008.17
2022-08-28T02:29:30.495Z,1008.20
2022-08-28T02:30:30.487Z,1008.24
2022-08-28T02:31:30.482Z,1008.21
2022-08-28T02:32:30.467Z,1008.17
2022-08-28T02:33:30.465Z,1008.18
2022-08-28T02:34:30.452Z,1008.17
2022-08-28T02:35:30.443Z,1008.22
2022-08-28T02:36:30.431Z,1008.19
2022-08-28T02:37:30.416Z,1008.19
2022-08-28T02:38:30.407Z,1008.20
2022-08-28T02:39:30.393Z,1008.22
2022-08-28T02:40:30.419Z,1008.22
2022-08-28T02:41:30.363Z,1008.17
2022-08-28T02:42:30.353Z,1008.21
2022-08-28T02:43:30.349Z,1008.21
2022-08-28T02:44:30.335Z,1008.19
2022-08-28T02:45:30.327Z,1008.21
2022-08-28T02:46:30.397Z,1008.25
2022-08-28T02:47:30.305Z,1008.19
2022-08-28T02:48:30.301Z,1008.21
2022-08-28T02:49:35.537Z,1008.16
2022-08-28T02:50:30.268Z,1008.21
2022-08-28T02:51:30.262Z,1008.22
2022-08-28T02:52:30.239Z,1008.25
2022-08-28T02:53:30.250Z,1008.24
2022-08-28T02:54:30.233Z,1008.28
2022-08-28T02:55:33.971Z,1008.26
2022-08-28T02:56:30.204Z,1008.22
2022-08-28T02:57:30.185Z,1008.24
2022-08-28T02:58:30.189Z,1008.25
2022-08-28T02:59:30.177Z,1008.26
2022-08-28T03:00:30.166Z,1008.25
2022-08-28T03:01:30.222Z,1008.27
2022-08-28T03:02:30.235Z,1008.26
2022-08-28T03:03:30.121Z,1008.24
2022-08-28T03:04:30.113Z,1008.20
2022-08-28T03:05:30.127Z,1008.22
2022-08-28T03:06:30.087Z,1008.22
2022-08-28T03:07:30.088Z,1008.23
2022-08-28T03:08:30.060Z,1008.17
2022-08-28T03:09:30.065Z,1008.22
2022-08-28T03:10:30.053Z,1008.22
2022-08-28T03:11:30.050Z,1008.21
2022-08-28T03:12:30.020Z,1008.21
2022-08-28T03:13:30.013Z,1008.25
2022-08-28T03:14:29.997Z,1008.22
2022-08-28T03:15:30.017Z,1008.24
2022-08-28T03:16:30.094Z,1008.23
2022-08-28T03:17:29.980Z,1008.23
2022-08-28T03:18:29.958Z,1008.19
2022-08-28T03:19:29.942Z,1008.23
2022-08-28T03:20:29.928Z,1008.23
2022-08-28T03:21:29.928Z,1008.20
2022-08-28T03:22:29.908Z,1008.20
2022-08-28T03:23:29.898Z,1008.21
2022-08-28T03:24:29.897Z,1008.22
2022-08-28T03:25:29.910Z,1008.23
2022-08-28T03:26:29.871Z,1008.22
2022-08-28T03:27:29.864Z,1008.22
2022-08-28T03:28:29.842Z,1008.23
2022-08-28T03:29:29.848Z,1008.24
2022-08-28T03:30:29.864Z,1008.27
2022-08-28T03:31:29.804Z,1008.25
2022-08-28T03:32:29.818Z,1008.26
2022-08-28T03:33:29.793Z,1008.29
2022-08-28T03:34:29.774Z,1008.32
2022-08-28T03:35:29.772Z,1008.29
2022-08-28T03:36:29.747Z,1008.29
2022-08-28T03:37:29.768Z,1008.31
2022-08-28T03:38:29.734Z,1008.27
2022-08-28T03:39:29.725Z,1008.33
2022-08-28T03:40:29.743Z,1008.28
2022-08-28T03:41:29.738Z,1008.27
2022-08-28T03:42:29.687Z,1008.30
2022-08-28T03:43:29.687Z,1008.28
2022-08-28T03:44:29.663Z,1008.31
2022-08-28T03:45:29.653Z,1008.28
2022-08-28T03:46:29.641Z,1008.31
2022-08-28T03:47:29.788Z,1008.33
2022-08-28T03:48:29.625Z,1008.32
2022-08-28T03:49:29.604Z,1008.32
2022-08-28T03:50:29.592Z,1008.34
2022-08-28T03:51:29.979Z,1008.33
2022-08-28T03:52:29.566Z,1008.29
2022-08-28T03:53:29.571Z,1008.29
2022-08-28T03:54:29.563Z,1008.30
2022-08-28T03:55:29.565Z,1008.30
2022-08-28T03:56:29.537Z,1008.28
2022-08-28T03:57:29.521Z,1008.31
2022-08-28T03:58:29.511Z,1008.29
2022-08-28T03:59:31.614Z,1008.30
2022-08-28T04:00:29.481Z,1008.30
2022-08-28T04:01:29.659Z,1008.27
2022-08-28T04:02:29.459Z,1008.29
2022-08-28T04:03:29.595Z,1008.35
2022-08-28T04:04:29.443Z,1008.32
2022-08-28T04:05:29.430Z,1008.38
2022-08-28T04:06:29.419Z,1008.38
2022-08-28T04:07:29.411Z,1008.42
2022-08-28T04:08:29.399Z,1008.40
2022-08-28T04:09:29.395Z,1008.42
2022-08-28T04:10:29.386Z,1008.43
2022-08-28T04:11:29.369Z,1008.43
2022-08-28T04:12:29.345Z,1008.48
2022-08-28T04:13:29.343Z,1008.46
2022-08-28T04:14:29.328Z,1008.45
2022-08-28T04:15:29.334Z,1008.45
2022-08-28T04:16:29.376Z,1008.46
2022-08-28T04:17:29.306Z,1008.48
2022-08-28T04:18:29.309Z,1008.45
2022-08-28T04:19:29.277Z,1008.47
2022-08-28T04:20:29.288Z,1008.44
2022-08-28T04:21:29.254Z,1008.49
2022-08-28T04:22:29.248Z,1008.48
2022-08-28T04:23:29.244Z,1008.45
2022-08-28T04:24:29.220Z,1008.51
2022-08-28T04:25:29.221Z,1008.53
2022-08-28T04:26:29.226Z,1008.54
2022-08-28T04:27:29.199Z,1008.57
2022-08-28T04:28:29.182Z,1008.55
2022-08-28T04:29:29.177Z,1008.59
2022-08-28T04:30:29.156Z,1008.59
2022-08-28T04:31:31.373Z,1008.62
2022-08-28T04:32:29.128Z,1008.62
2022-08-28T04:33:29.137Z,1008.66
2022-08-28T04:34:29.110Z,1008.67
2022-08-28T04:35:29.104Z,1008.70
2022-08-28T04:36:29.086Z,1008.74
2022-08-28T04:37:29.090Z,1008.74
2022-08-28T04:38:29.068Z,1008.75
2022-08-28T04:39:29.069Z,1008.77
2022-08-28T04:40:29.134Z,1008.81
2022-08-28T04:41:29.043Z,1008.79
2022-08-28T04:42:29.029Z,1008.78
2022-08-28T04:43:29.016Z,1008.83
2022-08-28T04:44:28.997Z,1008.80
2022-08-28T04:45:29.075Z,1008.77
2022-08-28T04:46:31.295Z,1008.79
2022-08-28T04:47:28.994Z,1008.82
2022-08-28T04:48:28.968Z,1008.78
2022-08-28T04:49:28.946Z,1008.73
2022-08-28T04:50:28.946Z,1008.75
2022-08-28T04:51:28.932Z,1008.75
2022-08-28T04:52:28.912Z,1008.77
2022-08-28T04:53:28.920Z,1008.75
2022-08-28T04:54:28.892Z,1008.73
2022-08-28T04:55:53.671Z,1008.75
2022-08-28T04:56:28.873Z,1008.75
2022-08-28T04:57:31.200Z,1008.78
2022-08-28T04:58:28.889Z,1008.76
2022-08-28T04:59:28.845Z,1008.76
2022-08-28T05:00:28.829Z,1008.75
2022-08-28T05:01:28.887Z,1008.72
2022-08-28T05:02:28.895Z,1008.73
2022-08-28T05:03:28.803Z,1008.76
2022-08-28T05:04:28.832Z,1008.78
2022-08-28T05:05:28.780Z,1008.76
2022-08-28T05:06:28.773Z,1008.78
2022-08-28T05:07:28.766Z,1008.74
2022-08-28T05:08:28.744Z,1008.75
2022-08-28T05:09:28.741Z,1008.83
2022-08-28T05:10:28.719Z,1008.80
2022-08-28T05:11:34.047Z,1008.84
2022-08-28T05:12:28.716Z,1008.81
2022-08-28T05:13:28.695Z,1008.82
2022-08-28T05:14:28.709Z,1008.82
2022-08-28T05:15:28.675Z,1008.86
2022-08-28T05:16:28.725Z,1008.86
2022-08-28T05:17:28.648Z,1008.87
2022-08-28T05:18:28.651Z,1008.89
2022-08-28T05:19:28.656Z,1008.88
2022-08-28T05:20:28.621Z,1008.89
2022-08-28T05:21:28.605Z,1008.90
2022-08-28T05:22:28.596Z,1008.90
2022-08-28T05:23:28.583Z,1008.91
2022-08-28T05:24:28.573Z,1008.91
2022-08-28T05:25:28.578Z,1008.95
2022-08-28T05:26:29.928Z,1008.91
2022-08-28T05:27:28.536Z,1008.92
2022-08-28T05:28:28.528Z,1008.94
2022-08-28T05:29:28.526Z,1008.91
2022-08-28T05:30:28.523Z,1008.97
2022-08-28T05:31:28.521Z,1008.97
2022-08-28T05:32:28.487Z,1008.95
2022-08-28T05:33:28.488Z,1008.97
2022-08-28T05:34:28.463Z,1008.98
2022-08-28T05:35:28.455Z,1009.01
2022-08-28T05:36:32.842Z,1009.02
2022-08-28T05:37:28.439Z,1009.00
2022-08-28T05:38:28.424Z,1009.02
2022-08-28T05:39:28.421Z,1008.99
2022-08-28T05:40:28.463Z,1009.02
2022-08-28T05:41:28.407Z,1009.01
2022-08-28T05:42:30.570Z,1009.03
2022-08-28T05:43:28.362Z,1009.09
2022-08-28T05:44:28.353Z,1009.02
2022-08-28T05:45:28.342Z,1009.07
2022-08-28T05:46:28.333Z,1009.05
2022-08-28T05:47:28.329Z,1009.05
2022-08-28T05:48:30.324Z,1009.06
2022-08-28T05:49:28.307Z,1009.07
2022-08-28T05:50:28.286Z,1009.04
2022-08-28T05:51:28.273Z,1009.03
2022-08-28T05:52:28.271Z,1009.05
2022-08-28T05:53:28.259Z,1009.08
2022-08-28T05:54:29.213Z,1009.07
2022-08-28T05:55:28.237Z,1009.10
2022-08-28T05:56:28.218Z,1009.13
2022-08-28T05:57:28.204Z,1009.09
2022-08-28T05:58:28.205Z,1009.09
2022-08-28T05:59:28.190Z,1009.10
2022-08-28T06:00:28.181Z,1009.09
2022-08-28T06:01:28.228Z,1009.11
2022-08-28T06:02:28.151Z,1009.11
2022-08-28T06:03:28.155Z,1009.10
2022-08-28T06:04:28.282Z,1009.14
2022-08-28T06:05:28.127Z,1009.11
2022-08-28T06:06:28.103Z,1009.13
2022-08-28T06:07:28.118Z,1009.10
2022-08-28T06:08:28.081Z,1009.15
2022-08-28T06:09:29.576Z,1009.13
2022-08-28T06:10:28.093Z,1009.15
2022-08-28T06:11:30.669Z,1009.13
2022-08-28T06:12:28.034Z,1009.15
2022-08-28T06:13:28.036Z,1009.19
2022-08-28T06:14:28.046Z,1009.14
2022-08-28T06:15:28.018Z,1009.16
2022-08-28T06:16:28.060Z,1009.15
2022-08-28T06:17:27.984Z,1009.14
2022-08-28T06:18:27.986Z,1009.13
2022-08-28T06:19:27.981Z,1009.13
2022-08-28T06:20:27.956Z,1009.12
2022-08-28T06:21:27.946Z,1009.07
2022-08-28T06:22:27.933Z,1009.11
2022-08-28T06:23:27.931Z,1009.10
2022-08-28T06:24:27.911Z,1009.10
2022-08-28T06:25:27.908Z,1009.07
2022-08-28T06:26:27.892Z,1009.05
2022-08-28T06:27:27.891Z,1009.13
2022-08-28T06:28:27.872Z,1009.09
2022-08-28T06:29:27.877Z,1009.10
2022-08-28T06:30:27.851Z,1009.15
2022-08-28T06:31:32.479Z,1009.15
2022-08-28T06:32:27.859Z,1009.18
2022-08-28T06:33:27.812Z,1009.19
2022-08-28T06:34:27.810Z,1009.19
2022-08-28T06:35:27.793Z,1009.24
2022-08-28T06:36:27.801Z,1009.17
2022-08-28T06:37:27.769Z,1009.23
2022-08-28T06:38:27.751Z,1009.25
2022-08-28T06:39:27.769Z,1009.27
2022-08-28T06:40:27.803Z,1009.26
2022-08-28T06:41:27.790Z,1009.23
2022-08-28T06:42:27.731Z,1009.20
2022-08-28T06:43:27.702Z,1009.25
2022-08-28T06:44:27.684Z,1009.25
2022-08-28T06:45:27.681Z,1009.28
2022-08-28T06:46:27.701Z,1009.26
2022-08-28T06:47:27.680Z,1009.29
2022-08-28T06:48:27.657Z,1009.30
2022-08-28T06:49:27.641Z,1009.34
2022-08-28T06:50:27.619Z,1009.35
2022-08-28T06:51:27.625Z,1009.38
2022-08-28T06:52:27.603Z,1009.39
2022-08-28T06:53:27.601Z,1009.43
2022-08-28T06:54:27.571Z,1009.45
2022-08-28T06:55:27.581Z,1009.47
2022-08-28T06:56:27.582Z,1009.43
2022-08-28T06:57:27.565Z,1009.44
2022-08-28T06:58:27.555Z,1009.41
2022-08-28T06:59:27.518Z,1009.42
2022-08-28T07:00:27.508Z,1009.44
2022-08-28T07:01:27.524Z,1009.50
2022-08-28T07:02:28.368Z,1009.48
2022-08-28T07:03:27.501Z,1009.46
2022-08-28T07:04:27.495Z,1009.52
2022-08-28T07:05:27.453Z,1009.51
2022-08-28T07:06:27.452Z,1009.56
2022-08-28T07:07:31.564Z,1009.56
2022-08-28T07:08:27.431Z,1009.63
2022-08-28T07:09:27.424Z,1009.56
2022-08-28T07:10:27.410Z,1009.60
2022-08-28T07:11:27.383Z,1009.63
2022-08-28T07:12:27.399Z,1009.63
2022-08-28T07:13:30.998Z,1009.62
2022-08-28T07:14:27.370Z,1009.64
2022-08-28T07:15:27.522Z,1009.65
2022-08-28T07:16:27.456Z,1009.64
2022-08-28T07:17:27.336Z,1009.67
2022-08-28T07:18:27.365Z,1009.63
2022-08-28T07:19:27.305Z,1009.68
2022-08-28T07:20:27.302Z,1009.65
2022-08-28T07:21:27.286Z,1009.65
2022-08-28T07:22:27.280Z,1009.65
2022-08-28T07:23:27.279Z,1009.67
2022-08-28T07:24:27.257Z,1009.66
2022-08-28T07:25:27.262Z,1009.67
2022-08-28T07:26:27.245Z,1009.71
2022-08-28T07:27:27.217Z,1009.71
2022-08-28T07:28:27.204Z,1009.74
2022-08-28T07:29:27.188Z,1009.73
2022-08-28T07:30:27.205Z,1009.74
2022-08-28T07:31:27.210Z,1009.80
2022-08-28T07:32:27.174Z,1009.76
2022-08-28T07:33:27.152Z,1009.76
2022-08-28T07:34:27.491Z,1009.81
2022-08-28T07:35:27.148Z,1009.81
2022-08-28T07:36:29.710Z,1009.82
2022-08-28T07:37:27.105Z,1009.85
2022-08-28T07:38:27.101Z,1009.88
2022-08-28T07:39:27.114Z,1009.87
2022-08-28T07:40:27.117Z,1009.90
2022-08-28T07:41:27.089Z,1009.91
2022-08-28T07:42:27.054Z,1009.90
2022-08-28T07:43:27.058Z,1009.92
2022-08-28T07:44:27.032Z,1009.93
2022-08-28T07:45:27.017Z,1009.89
2022-08-28T07:46:27.014Z,1009.92
2022-08-28T07:47:27.014Z,1009.92
2022-08-28T07:48:26.992Z,1009.92
2022-08-28T07:49:26.980Z,1009.92
2022-08-28T07:50:26.972Z,1009.91
2022-08-28T07:51:26.949Z,1009.93
2022-08-28T07:52:26.961Z,1009.95
2022-08-28T07:53:26.941Z,1009.95
2022-08-28T07:54:26.951Z,1009.95
2022-08-28T07:55:26.919Z,1010.00
2022-08-28T07:56:26.903Z,1009.95
2022-08-28T07:57:26.911Z,1009.96
2022-08-28T07:58:26.924Z,1010.00
2022-08-28T07:59:28.131Z,1009.98
2022-08-28T08:00:26.867Z,1010.03
2022-08-28T08:01:26.945Z,1010.05
2022-08-28T08:02:26.868Z,1010.06
2022-08-28T08:03:26.906Z,1010.03
2022-08-28T08:04:26.818Z,1010.06
2022-08-28T08:05:26.797Z,1010.03
2022-08-28T08:06:26.801Z,1010.00
2022-08-28T08:07:26.783Z,1010.01
2022-08-28T08:08:26.809Z,1010.02
2022-08-28T08:09:27.118Z,1009.98
2022-08-28T08:10:26.762Z,1010.03
2022-08-28T08:11:26.733Z,1010.02
2022-08-28T08:12:29.318Z,1010.04
2022-08-28T08:13:26.711Z,1010.06
2022-08-28T08:14:26.715Z,1010.03
2022-08-28T08:15:31.098Z,1010.08
2022-08-28T08:16:26.678Z,1010.11
2022-08-28T08:17:26.670Z,1010.08
2022-08-28T08:18:26.660Z,1010.09
2022-08-28T08:19:26.648Z,1010.11
2022-08-28T08:20:26.656Z,1010.11
2022-08-28T08:21:30.095Z,1010.15
2022-08-28T08:22:26.610Z,1010.13
2022-08-28T08:23:26.622Z,1010.13
2022-08-28T08:24:26.916Z,1010.10
2022-08-28T08:25:26.604Z,1010.16
2022-08-28T08:26:26.568Z,1010.16
2022-08-28T08:27:26.554Z,1010.15
2022-08-28T08:28:26.543Z,1010.15
2022-08-28T08:29:26.542Z,1010.18
2022-08-28T08:30:26.540Z,1010.17
2022-08-28T08:31:26.699Z,1010.17
2022-08-28T08:32:26.512Z,1010.18
2022-08-28T08:33:26.496Z,1010.19
2022-08-28T08:34:26.485Z,1010.21
2022-08-28T08:35:26.497Z,1010.17
2022-08-28T08:36:26.461Z,1010.21
2022-08-28T08:37:26.450Z,1010.21
2022-08-28T08:38:26.438Z,1010.19
2022-08-28T08:39:26.424Z,1010.18
2022-08-28T08:40:26.502Z,1010.17
2022-08-28T08:41:26.455Z,1010.15
2022-08-28T08:42:26.414Z,1010.20
2022-08-28T08:43:26.376Z,1010.22
2022-08-28T08:44:33.262Z,1010.30
2022-08-28T08:45:26.376Z,1010.29
2022-08-28T08:46:26.429Z,1010.30
2022-08-28T08:47:26.369Z,1010.28
2022-08-28T08:48:26.373Z,1010.30
2022-08-28T08:49:26.310Z,1010.36
2022-08-28T08:50:26.308Z,1010.29
2022-08-28T08:51:26.311Z,1010.33
2022-08-28T08:52:26.295Z,1010.32
2022-08-28T08:53:26.295Z,1010.32
2022-08-28T08:54:26.266Z,1010.35
2022-08-28T08:55:26.247Z,1010.35
2022-08-28T08:56:34.834Z,1010.34
2022-08-28T08:57:26.255Z,1010.38
2022-08-28T08:58:26.220Z,1010.41
2022-08-28T08:59:26.208Z,1010.39
2022-08-28T09:00:26.246Z,1010.36
2022-08-28T09:01:26.290Z,1010.38
2022-08-28T09:02:31.168Z,1010.34
2022-08-28T09:03:26.259Z,1010.38
2022-08-28T09:04:26.155Z,1010.33
2022-08-28T09:05:26.159Z,1010.32
2022-08-28T09:06:26.133Z,1010.36
2022-08-28T09:07:26.134Z,1010.38
2022-08-28T09:08:26.144Z,1010.38
2022-08-28T09:09:26.098Z,1010.39
2022-08-28T09:10:26.093Z,1010.35
2022-08-28T09:11:26.075Z,1010.35
2022-08-28T09:12:26.069Z,1010.39
2022-08-28T09:13:26.184Z,1010.44
2022-08-28T09:14:26.873Z,1010.41
2022-08-28T09:15:26.084Z,1010.42
2022-08-28T09:16:26.106Z,1010.43
2022-08-28T09:17:26.015Z,1010.42
2022-08-28T09:18:26.008Z,1010.48
2022-08-28T09:19:26.010Z,1010.49
2022-08-28T09:20:32.607Z,1010.49
2022-08-28T09:21:29.040Z,1010.48
2022-08-28T09:22:25.969Z,1010.49
2022-08-28T09:23:25.954Z,1010.50
2022-08-28T09:24:26.018Z,1010.53
2022-08-28T09:25:25.933Z,1010.52
2022-08-28T09:26:25.915Z,1010.56
2022-08-28T09:27:25.905Z,1010.52
2022-08-28T09:28:25.938Z,1010.55
2022-08-28T09:29:25.876Z,1010.50
2022-08-28T09:30:25.906Z,1010.48
2022-08-28T09:31:25.936Z,1010.49
2022-08-28T09:32:25.845Z,1010.48
2022-08-28T09:33:25.845Z,1010.45
2022-08-28T09:34:25.832Z,1010.49
2022-08-28T09:35:25.815Z,1010.46
2022-08-28T09:36:25.851Z,1010.49
2022-08-28T09:37:25.802Z,1010.49
2022-08-28T09:38:27.862Z,1010.48
2022-08-28T09:39:25.776Z,1010.49
2022-08-28T09:40:25.819Z,1010.53
2022-08-28T09:41:25.748Z,1010.52
2022-08-28T09:42:25.783Z,1010.54
2022-08-28T09:43:25.738Z,1010.56
2022-08-28T09:44:25.723Z,1010.55
2022-08-28T09:45:25.709Z,1010.60
2022-08-28T09:46:25.741Z,1010.59
2022-08-28T09:47:25.692Z,1010.61
2022-08-28T09:48:25.699Z,1010.61
2022-08-28T09:49:25.707Z,1010.57
2022-08-28T09:50:25.654Z,1010.63
2022-08-28T09:51:25.667Z,1010.62
2022-08-28T09:52:25.845Z,1010.64
2022-08-28T09:53:25.621Z,1010.61
2022-08-28T09:54:25.611Z,1010.67
2022-08-28T09:55:25.607Z,1010.64
2022-08-28T09:56:25.595Z,1010.64
2022-08-28T09:57:25.585Z,1010.62
2022-08-28T09:58:25.580Z,1010.64
2022-08-28T09:59:25.559Z,1010.70
2022-08-28T10:00:25.549Z,1010.71
2022-08-28T10:01:25.639Z,1010.71
2022-08-28T10:02:25.528Z,1010.71
2022-08-28T10:03:25.531Z,1010.79
2022-08-28T10:04:25.555Z,1010.74
2022-08-28T10:05:25.836Z,1010.76
2022-08-28T10:06:25.480Z,1010.76
2022-08-28T10:07:25.469Z,1010.74
2022-08-28T10:08:25.507Z,1010.78
2022-08-28T10:09:25.447Z,1010.82
2022-08-28T10:10:25.443Z,1010.78
2022-08-28T10:11:25.423Z,1010.79
2022-08-28T10:12:25.414Z,1010.81
2022-08-28T10:13:25.409Z,1010.79
2022-08-28T10:14:25.411Z,1010.82
2022-08-28T10:15:25.378Z,1010.78
2022-08-28T10:16:25.434Z,1010.83
2022-08-28T10:17:25.356Z,1010.76
2022-08-28T10:18:25.359Z,1010.82
2022-08-28T10:19:25.346Z,1010.82
2022-08-28T10:20:25.338Z,1010.73
2022-08-28T10:21:25.332Z,1010.80
2022-08-28T10:22:25.308Z,1010.82
2022-08-28T10:23:25.295Z,1010.80
2022-08-28T10:24:27.171Z,1010.84
2022-08-28T10:25:25.288Z,1010.86
2022-08-28T10:26:25.267Z,1010.82
2022-08-28T10:27:25.261Z,1010.81
2022-08-28T10:28:25.243Z,1010.83
2022-08-28T10:29:25.226Z,1010.85
2022-08-28T10:30:25.239Z,1010.81
2022-08-28T10:31:25.272Z,1010.85
2022-08-28T10:32:25.207Z,1010.88
2022-08-28T10:33:25.193Z,1010.88
2022-08-28T10:34:25.179Z,1010.88
2022-08-28T10:35:25.193Z,1010.87
2022-08-28T10:36:33.937Z,1010.88
2022-08-28T10:37:25.146Z,1010.90
2022-08-28T10:38:25.135Z,1010.89
2022-08-28T10:39:25.139Z,1010.93
2022-08-28T10:40:25.246Z,1010.91
2022-08-28T10:41:25.106Z,1010.94
2022-08-28T10:42:25.088Z,1010.97
2022-08-28T10:43:25.091Z,1010.94
2022-08-28T10:44:25.068Z,1010.96
2022-08-28T10:45:25.062Z,1010.97
2022-08-28T10:46:27.151Z,1010.99
2022-08-28T10:47:25.699Z,1011.01
2022-08-28T10:48:25.034Z,1011.01
2022-08-28T10:49:25.018Z,1011.02
2022-08-28T10:50:25.000Z,1011.03
2022-08-28T10:51:35.487Z,1011.02
2022-08-28T10:52:24.996Z,1011.04
2022-08-28T10:53:25.002Z,1011.03
2022-08-28T10:54:24.959Z,1011.05
2022-08-28T10:55:24.954Z,1011.02
2022-08-28T10:56:24.942Z,1011.05
2022-08-28T10:57:24.967Z,1011.04
2022-08-28T10:58:25.575Z,1011.11
2022-08-28T10:59:24.952Z,1011.07
2022-08-28T11:00:24.896Z,1011.16
2022-08-28T11:01:24.980Z,1011.15
2022-08-28T11:02:24.969Z,1011.12
2022-08-28T11:03:34.344Z,1011.14
2022-08-28T11:04:25.780Z,1011.15
2022-08-28T11:05:24.848Z,1011.16
2022-08-28T11:06:24.824Z,1011.17
2022-08-28T11:07:24.811Z,1011.16
2022-08-28T11:08:24.823Z,1011.13
2022-08-28T11:09:24.805Z,1011.13
2022-08-28T11:10:24.814Z,1011.15
2022-08-28T11:11:24.806Z,1011.14
2022-08-28T11:12:24.758Z,1011.15
2022-08-28T11:13:24.770Z,1011.15
2022-08-28T11:14:24.739Z,1011.17
2022-08-28T11:15:24.743Z,1011.21
2022-08-28T11:16:24.793Z,1011.18
2022-08-28T11:17:24.711Z,1011.25
2022-08-28T11:18:25.327Z,1011.22
2022-08-28T11:19:24.684Z,1011.21
2022-08-28T11:20:24.692Z,1011.23
2022-08-28T11:21:24.656Z,1011.23
2022-08-28T11:22:24.656Z,1011.27
2022-08-28T11:23:24.643Z,1011.27
2022-08-28T11:24:24.636Z,1011.24
2022-08-28T11:25:26.700Z,1011.27
2022-08-28T11:26:24.626Z,1011.26
2022-08-28T11:27:24.617Z,1011.26
2022-08-28T11:28:24.590Z,1011.29
2022-08-28T11:29:24.573Z,1011.32
2022-08-28T11:30:24.558Z,1011.28
2022-08-28T11:31:29.096Z,1011.27
2022-08-28T11:32:24.557Z,1011.29
2022-08-28T11:33:24.522Z,1011.26
2022-08-28T11:34:24.523Z,1011.30
2022-08-28T11:35:24.504Z,1011.28
2022-08-28T11:36:24.493Z,1011.31
2022-08-28T11:37:24.490Z,1011.32
2022-08-28T11:38:24.482Z,1011.33
2022-08-28T11:39:24.461Z,1011.34
2022-08-28T11:40:24.542Z,1011.32
2022-08-28T11:41:24.515Z,1011.34
2022-08-28T11:42:24.436Z,1011.34
2022-08-28T11:43:24.431Z,1011.37
2022-08-28T11:44:24.403Z,1011.32
2022-08-28T11:45:24.388Z,1011.31
2022-08-28T11:46:24.438Z,1011.36
2022-08-28T11:47:24.380Z,1011.30
2022-08-28T11:48:24.401Z,1011.31
2022-08-28T11:49:24.355Z,1011.32
2022-08-28T11:50:24.346Z,1011.33
2022-08-28T11:51:24.337Z,1011.35
2022-08-28T11:52:24.332Z,1011.30
2022-08-28T11:53:24.308Z,1011.31
2022-08-28T11:54:24.326Z,1011.30
2022-08-28T11:55:24.290Z,1011.29
2022-08-28T11:56:31.001Z,1011.30
2022-08-28T11:57:24.367Z,1011.27
2022-08-28T11:58:24.256Z,1011.26
2022-08-28T11:59:24.279Z,1011.25
2022-08-28T12:00:24.232Z,1011.26
2022-08-28T12:01:24.242Z,1011.27
2022-08-28T12:02:24.278Z,1011.26
2022-08-28T12:03:24.203Z,1011.28
2022-08-28T12:04:24.256Z,1011.26
2022-08-28T12:05:24.192Z,1011.21